Time;durP1;ratioP1;P1;durP2;ratioP2;P2;SDS_P1;SDS_P2;PMS_P1;PMS_P2;Temp;Humidity;BMP_temperature;BMP_pressure;BME280_temperature;BME280_humidity;BME280_pressure;Samples;Min_cycle;Max_cycle;Signal;HPM_P1;HPM_P2
2022/04/09 00:00:15;;;;;;;1362.93;999.90;;;;;;;1.52;100.00;98950.81;5034092;28;21899;-81
2022/04/09 00:02:48;;;;;;;1366.00;999.90;;;;;;;1.54;100.00;98954.00;5036181;28;20041;-80
2022/04/09 00:05:22;;;;;;;1366.75;999.90;;;;;;;1.47;100.00;98948.88;5034721;28;20053;-80
2022/04/09 00:07:50;;;;;;;1370.03;999.90;;;;;;;1.52;100.00;98964.19;5030873;28;20057;-81
2022/04/09 00:10:23;;;;;;;1374.32;999.90;;;;;;;1.47;100.00;98956.94;5034585;28;20501;-81
2022/04/09 00:12:56;;;;;;;1374.05;999.90;;;;;;;1.49;100.00;98962.03;5006902;28;20063;-80
2022/04/09 00:15:30;;;;;;;1374.45;999.90;;;;;;;1.56;100.00;98969.81;5031653;28;20045;-81
2022/04/09 00:18:03;;;;;;;1378.70;999.90;;;;;;;1.56;100.00;98961.78;5030499;28;20057;-81
2022/04/09 00:20:38;;;;;;;1377.60;999.90;;;;;;;1.51;100.00;98967.94;5031545;28;20056;-80
2022/04/09 00:23:13;;;;;;;1379.13;999.90;;;;;;;1.49;100.00;98973.56;5031115;28;20077;-80
2022/04/09 00:25:41;;;;;;;1380.03;999.90;;;;;;;1.34;100.00;98965.44;5065936;28;20421;-80
2022/04/09 00:28:14;;;;;;;1381.28;999.90;;;;;;;1.42;100.00;98978.34;5028117;28;20659;-81
2022/04/09 00:30:47;;;;;;;1382.40;999.90;;;;;;;1.36;100.00;98972.16;5029379;28;21443;-80
2022/04/09 00:33:20;;;;;;;1381.55;999.90;;;;;;;1.31;100.00;98980.19;5029397;28;20883;-81
2022/04/09 00:35:55;;;;;;;1385.90;999.90;;;;;;;1.30;100.00;98985.81;5026833;28;20048;-79
2022/04/09 00:38:29;;;;;;;1382.80;999.90;;;;;;;1.28;100.00;98987.94;5029564;28;20049;-81
2022/04/09 00:41:02;;;;;;;1385.68;999.90;;;;;;;1.18;100.00;98984.13;5028341;28;20449;-82
2022/04/09 00:43:30;;;;;;;1387.07;999.90;;;;;;;1.20;100.00;98986.53;5030002;28;20053;-81
2022/04/09 00:46:03;;;;;;;1382.90;999.90;;;;;;;1.13;100.00;98985.97;5031876;28;20422;-80
2022/04/09 00:48:32;;;;;;;1386.40;999.90;;;;;;;1.12;100.00;98984.34;5035396;28;20052;-81
2022/04/09 00:51:01;;;;;;;1386.45;999.90;;;;;;;1.11;100.00;98998.84;5030359;28;20059;-80
2022/04/09 00:53:36;;;;;;;1388.43;999.90;;;;;;;1.10;100.00;98991.84;5031324;28;21454;-81
2022/04/09 00:56:15;;;;;;;1386.95;999.90;;;;;;;1.06;100.00;98999.59;5029212;28;20059;-81
2022/04/09 00:58:53;;;;;;;1390.30;999.90;;;;;;;1.02;100.00;99004.69;5029868;28;20060;-80
2022/04/09 01:01:29;;;;;;;1392.03;999.90;;;;;;;1.01;100.00;99008.41;5036556;28;20045;-81
2022/04/09 01:03:59;;;;;;;1392.55;999.90;;;;;;;0.95;100.00;98998.75;5032151;28;20072;-81
2022/04/09 01:06:28;;;;;;;1392.45;999.90;;;;;;;0.96;100.00;99011.03;5033821;28;21712;-80
2022/04/09 01:09:01;;;;;;;1392.95;999.90;;;;;;;0.92;100.00;99017.19;5036578;28;20401;-81
2022/04/09 01:11:30;;;;;;;1394.90;999.90;;;;;;;0.95;100.00;99027.38;5032303;28;20045;-79
2022/04/09 01:14:04;;;;;;;1394.63;999.90;;;;;;;0.99;100.00;99031.16;5033340;28;20071;-80
2022/04/09 01:16:37;;;;;;;1400.05;999.90;;;;;;;0.93;100.00;99029.53;5030206;28;20049;-80
2022/04/09 01:19:11;;;;;;;1400.63;999.90;;;;;;;0.88;100.00;99038.31;5033550;28;20049;-81
2022/04/09 01:21:41;;;;;;;1405.57;999.90;;;;;;;0.89;100.00;99044.50;5035589;28;20071;-81
2022/04/09 01:24:15;;;;;;;1400.03;999.90;;;;;;;0.89;100.00;99036.44;5032791;28;20076;-81
2022/04/09 01:26:53;;;;;;;1396.63;999.90;;;;;;;0.82;100.00;99044.69;5034349;28;20061;-80
2022/04/09 01:29:30;;;;;;;1404.95;999.90;;;;;;;0.79;100.00;99054.03;5037636;28;20705;-80
2022/04/09 01:32:05;;;;;;;1404.18;999.90;;;;;;;0.79;100.00;99048.69;5032732;28;20061;-80
2022/04/09 01:34:33;;;;;;;1406.55;999.90;;;;;;;0.80;100.00;99052.16;5033019;28;20052;-82
2022/04/09 01:37:07;;;;;;;1403.07;999.90;;;;;;;0.79;100.00;99040.66;5029483;28;20064;-81
2022/04/09 01:39:41;;;;;;;1406.68;999.90;;;;;;;0.93;100.00;99062.47;5031315;28;20048;-80
2022/04/09 01:42:14;;;;;;;1402.70;999.90;;;;;;;0.97;100.00;99068.13;5028042;28;20061;-81
2022/04/09 01:44:48;;;;;;;1407.85;999.90;;;;;;;0.81;100.00;99061.81;5031534;28;20048;-81
2022/04/09 01:47:21;;;;;;;1412.45;999.90;;;;;;;0.87;100.00;99068.03;5030672;28;20049;-81
2022/04/09 01:49:54;;;;;;;1417.75;999.90;;;;;;;0.85;100.00;99079.00;5037587;28;20500;-79
2022/04/09 01:52:28;;;;;;;1416.45;999.90;;;;;;;0.77;100.00;99066.88;5027290;28;20064;-81
2022/04/09 01:55:04;;;;;;;1424.13;999.90;;;;;;;0.93;100.00;99088.44;5034781;28;20626;-81
2022/04/09 01:57:40;;;;;;;1425.22;999.90;;;;;;;0.93;100.00;99086.56;5031338;28;20067;-81
2022/04/09 02:00:12;;;;;;;1434.72;999.90;;;;;;;0.90;100.00;99089.75;5031659;28;20053;-80
2022/04/09 02:02:49;;;;;;;1438.82;999.90;;;;;;;0.97;100.00;99102.94;5035897;28;20056;-80
2022/04/09 02:05:23;;;;;;;1445.93;999.90;;;;;;;0.95;100.00;99099.69;5036912;28;20041;-80
2022/04/09 02:07:57;;;;;;;1443.13;999.90;;;;;;;0.93;100.00;99104.53;5034271;28;20079;-80
2022/04/09 02:10:30;;;;;;;1450.25;999.90;;;;;;;0.82;100.00;99107.09;5031160;28;20049;-81
2022/04/09 02:13:01;;;;;;;1448.80;999.90;;;;;;;0.79;100.00;99110.28;5004476;28;20048;-82
2022/04/09 02:15:35;;;;;;;1449.93;999.90;;;;;;;0.83;100.00;99122.09;5031829;28;20057;-82
2022/04/09 02:18:08;;;;;;;1454.35;999.90;;;;;;;0.74;100.00;99118.25;5030253;28;20053;-81
2022/04/09 02:20:41;;;;;;;1457.78;999.90;;;;;;;0.76;100.00;99121.50;5031749;28;20489;-81
2022/04/09 02:23:14;;;;;;;1464.68;999.90;;;;;;;0.75;100.00;99130.59;5031598;28;20061;-80
2022/04/09 02:25:49;;;;;;;1463.30;999.90;;;;;;;0.62;100.00;99121.09;5033715;28;20755;-81
2022/04/09 02:28:22;;;;;;;1463.45;999.90;;;;;;;0.63;100.00;99138.78;5029305;28;20053;-80
2022/04/09 02:30:52;;;;;;;1471.60;999.90;;;;;;;0.68;100.00;99138.03;5032898;28;20037;-81
2022/04/09 02:33:31;;;;;;;1469.80;999.90;;;;;;;0.55;100.00;99123.16;5035526;28;20055;-81
2022/04/09 02:35:59;;;;;;;1479.07;999.90;;;;;;;0.71;100.00;99147.44;5028923;28;20052;-80
2022/04/09 02:38:27;;;;;;;1479.60;999.90;;;;;;;0.66;100.00;99143.63;5036109;28;20068;-79
2022/04/09 02:41:04;;;;;;;1479.65;999.90;;;;;;;0.67;100.00;99153.28;5061719;28;20049;-82
2022/04/09 02:43:32;;;;;;;1488.10;999.90;;;;;;;0.61;100.00;99150.81;5032637;28;20060;-81
2022/04/09 02:46:00;;;;;;;1489.57;999.90;;;;;;;0.50;100.00;99150.69;5035469;28;20041;-81
2022/04/09 02:48:38;;;;;;;1494.03;999.90;;;;;;;0.58;100.00;99160.16;5029878;28;20068;-81
2022/04/09 02:51:07;;;;;;;1494.57;999.90;;;;;;;0.51;100.00;99170.22;5033101;28;20131;-81
2022/04/09 02:53:36;;;;;;;1504.80;999.90;;;;;;;0.55;100.00;99167.88;5029959;28;20049;-81
2022/04/09 02:56:06;;;;;;;1501.40;999.90;;;;;;;0.54;100.00;99174.28;5065395;28;20068;-80
2022/04/09 02:58:40;;;;;;;1506.07;999.90;;;;;;;0.46;100.00;99165.63;5031866;28;20401;-79
2022/04/09 03:01:14;;;;;;;1505.03;999.90;;;;;;;0.41;100.00;99170.13;5030801;28;20049;-81
2022/04/09 03:03:42;;;;;;;1507.90;999.90;;;;;;;0.51;100.00;99164.88;5034412;28;20072;-81
2022/04/09 03:06:15;;;;;;;1515.28;999.90;;;;;;;0.56;100.00;99181.00;5036213;28;20382;-81
2022/04/09 03:08:48;;;;;;;1518.38;999.90;;;;;;;0.51;100.00;99186.28;5033806;28;20618;-81
2022/04/09 03:11:22;;;;;;;1514.82;999.90;;;;;;;0.51;100.00;99188.97;5060512;28;20068;-81
2022/04/09 03:13:55;;;;;;;1517.78;999.90;;;;;;;0.59;100.00;99199.22;5000368;28;20052;-81
2022/04/09 03:16:29;;;;;;;1525.50;999.90;;;;;;;0.52;100.00;99197.81;5035204;28;20057;-80
2022/04/09 03:18:57;;;;;;;1531.07;999.90;;;;;;;0.56;100.00;99201.63;5033031;28;20060;-80
2022/04/09 03:21:31;;;;;;;1533.03;999.90;;;;;;;0.45;100.00;99209.50;5033326;28;20056;-80
2022/04/09 03:24:04;;;;;;;1535.25;999.90;;;;;;;0.46;100.00;99213.00;5033509;28;20485;-82
2022/04/09 03:26:39;;;;;;;1538.38;999.90;;;;;;;0.53;100.00;99208.28;5037552;28;20053;-81
2022/04/09 03:29:07;;;;;;;1542.75;999.90;;;;;;;0.40;100.00;99209.47;5034396;28;20395;-80
2022/04/09 03:31:42;;;;;;;1543.68;999.90;;;;;;;0.29;100.00;99202.34;5032505;28;20045;-80
2022/04/09 03:34:16;;;;;;;1542.40;999.90;;;;;;;0.40;100.00;99222.03;5035708;28;20052;-79
2022/04/09 03:36:49;;;;;;;1546.72;999.90;;;;;;;0.45;100.00;99222.88;5034851;28;20405;-81
2022/04/09 03:39:22;;;;;;;1548.25;999.90;;;;;;;0.37;100.00;99220.66;5041919;28;20072;-81
2022/04/09 03:41:57;;;;;;;1551.75;999.90;;;;;;;0.40;100.00;99222.03;5031503;28;20049;-81
2022/04/09 03:44:31;;;;;;;1550.32;999.90;;;;;;;0.40;100.00;99235.41;5037953;28;20056;-82
2022/04/09 03:47:06;;;;;;;1550.97;999.90;;;;;;;0.40;100.00;99236.22;5034853;28;20490;-80
2022/04/09 03:49:39;;;;;;;1553.03;999.90;;;;;;;0.37;100.00;99244.72;5045012;28;20389;-81
2022/04/09 03:52:12;;;;;;;1551.32;999.90;;;;;;;0.30;100.00;99231.56;5031151;28;20053;-80
2022/04/09 03:54:46;;;;;;;1552.57;999.90;;;;;;;0.20;100.00;99227.94;5031611;28;21126;-81
2022/04/09 03:57:20;;;;;;;1557.45;999.90;;;;;;;0.26;100.00;99254.50;5035199;28;20064;-82
2022/04/09 03:59:56;;;;;;;1553.13;999.90;;;;;;;0.33;100.00;99251.63;5037797;28;21117;-81
2022/04/09 04:02:26;;;;;;;1553.43;999.90;;;;;;;0.36;100.00;99255.69;5034736;28;20057;-81
2022/04/09 04:05:03;;;;;;;1552.97;999.90;;;;;;;0.33;100.00;99262.34;5038703;28;20068;-81
2022/04/09 04:07:37;;;;;;;1555.10;999.90;;;;;;;0.26;100.00;99261.72;5031206;28;20057;-82
2022/04/09 04:10:12;;;;;;;1555.20;999.90;;;;;;;0.21;100.00;99253.59;5030054;28;20065;-82
2022/04/09 04:12:44;;;;;;;1553.72;999.90;;;;;;;0.23;100.00;99259.53;5039610;27;20056;-81
2022/04/09 04:15:15;;;;;;;1560.72;999.90;;;;;;;0.25;100.00;99263.59;5037810;28;20068;-81
2022/04/09 04:17:49;;;;;;;1563.10;999.90;;;;;;;0.10;100.00;99260.72;5030049;28;20108;-81
2022/04/09 04:20:27;;;;;;;1566.43;999.90;;;;;;;0.14;100.00;99269.84;5030746;28;20056;-82
2022/04/09 04:23:03;;;;;;;1571.88;999.90;;;;;;;0.12;100.00;99278.09;5029205;28;20056;-82
2022/04/09 04:25:36;;;;;;;1570.57;999.90;;;;;;;0.08;100.00;99276.19;5035098;28;20064;-80
2022/04/09 04:28:11;;;;;;;1571.05;999.90;;;;;;;0.11;100.00;99281.03;5037114;28;20049;-81
2022/04/09 04:30:45;;;;;;;1574.25;999.90;;;;;;;0.17;100.00;99288.09;5034458;28;20053;-83
2022/04/09 04:33:13;;;;;;;1570.50;999.90;;;;;;;0.20;100.00;99295.63;5037007;28;20065;-81
2022/04/09 04:35:47;;;;;;;1565.75;999.90;;;;;;;0.03;100.00;99278.75;5037186;28;20092;-81
2022/04/09 04:38:23;;;;;;;1570.07;999.90;;;;;;;0.15;100.00;99293.69;5035422;28;20064;-81
2022/04/09 04:41:00;;;;;;;1562.47;999.90;;;;;;;0.19;100.00;99303.91;5033197;28;20053;-80
2022/04/09 04:43:35;;;;;;;1558.78;999.90;;;;;;;0.09;100.00;99310.69;5034548;28;20064;-80
2022/04/09 04:46:08;;;;;;;1563.40;999.90;;;;;;;0.16;100.00;99313.22;5037765;28;20048;-82
2022/04/09 04:48:41;;;;;;;1565.32;999.90;;;;;;;0.11;100.00;99305.09;5035755;28;21599;-81
2022/04/09 04:51:11;;;;;;;1563.47;999.90;;;;;;;0.14;100.00;99305.44;5034415;28;20774;-82
2022/04/09 04:53:44;;;;;;;1563.78;999.90;;;;;;;0.18;100.00;99319.16;5035956;28;20048;-80
2022/04/09 04:56:13;;;;;;;1564.90;999.90;;;;;;;0.23;100.00;99321.88;5034056;28;20056;-81
2022/04/09 04:58:48;;;;;;;1571.35;999.90;;;;;;;0.23;100.00;99335.25;5035034;28;20056;-81
2022/04/09 05:01:17;;;;;;;1569.90;999.90;;;;;;;0.26;100.00;99328.59;5035470;28;20064;-80
2022/04/09 05:03:52;;;;;;;1581.15;999.90;;;;;;;0.31;100.00;99334.03;5037766;28;21432;-82
2022/04/09 05:06:31;;;;;;;1588.10;999.90;;;;;;;0.48;100.00;99345.53;5032039;28;20064;-79
2022/04/09 05:09:06;;;;;;;1605.32;999.90;;;;;;;0.50;100.00;99346.09;5029505;28;20053;-81
2022/04/09 05:11:45;;;;;;;1649.72;999.90;;;;;;;0.63;100.00;99349.47;5029626;28;20045;-82
2022/04/09 05:14:22;;;;;;;1671.03;999.90;;;;;;;0.71;100.00;99350.94;5036511;28;20060;-81
2022/04/09 05:16:57;;;;;;;1677.30;999.90;;;;;;;0.70;100.00;99352.78;5038340;28;20385;-82
2022/04/09 05:19:34;;;;;;;1684.15;999.90;;;;;;;0.75;100.00;99358.22;5030808;28;20057;-81
2022/04/09 05:22:12;;;;;;;1687.47;999.90;;;;;;;0.81;100.00;99353.72;5033326;28;20077;-81
2022/04/09 05:25:00;;;;;;;1697.20;999.90;;;;;;;0.93;100.00;99370.50;5030583;28;20061;-81
2022/04/09 05:27:34;;;;;;;1692.97;999.90;;;;;;;0.85;100.00;99360.22;5036396;28;20063;-80
2022/04/09 05:30:14;;;;;;;1692.75;999.90;;;;;;;0.95;100.00;99381.78;5034370;28;20052;-81
2022/04/09 05:32:44;;;;;;;1691.45;999.90;;;;;;;0.93;100.00;99383.09;5033341;28;20044;-80
2022/04/09 05:35:17;;;;;;;1694.88;999.90;;;;;;;0.98;100.00;99383.13;5032389;28;20060;-79
2022/04/09 05:37:51;;;;;;;1700.63;999.90;;;;;;;1.10;100.00;99391.06;5030809;28;20061;-82
2022/04/09 05:40:23;;;;;;;1700.15;999.90;;;;;;;1.15;100.00;99380.44;5034660;28;20063;-83
2022/04/09 05:43:00;;;;;;;1691.13;999.90;;;;;;;1.10;100.00;99385.72;5032712;28;20048;-79
2022/04/09 05:45:36;;;;;;;1701.60;999.90;;;;;;;1.29;100.00;99400.41;5032858;28;20052;-83
2022/04/09 05:48:09;;;;;;;1704.95;999.90;;;;;;;1.39;100.00;99382.84;5032486;28;20083;-82
2022/04/09 05:50:51;;;;;;;1701.55;999.90;;;;;;;1.42;100.00;99393.06;5036497;28;20057;-83
2022/04/09 05:53:27;;;;;;;1710.10;999.90;;;;;;;1.43;100.00;99408.88;5030364;28;20061;-82
2022/04/09 05:55:57;;;;;;;1707.25;999.90;;;;;;;1.42;100.00;99409.94;5032386;28;20516;-81
2022/04/09 05:58:31;;;;;;;1716.85;999.90;;;;;;;1.57;100.00;99411.19;5034269;28;20057;-81
2022/04/09 06:01:08;;;;;;;1725.93;999.90;;;;;;;1.61;100.00;99409.63;5031077;28;20069;-80
2022/04/09 06:03:42;;;;;;;1732.57;999.90;;;;;;;1.82;100.00;99421.38;5033965;28;20048;-81
2022/04/09 06:06:11;;;;;;;1749.95;999.90;;;;;;;1.94;100.00;99421.22;5071209;28;20056;-81
2022/04/09 06:08:55;;;;;;;1760.47;999.90;;;;;;;1.85;100.00;99415.50;5030051;28;20818;-83
2022/04/09 06:11:51;;;;;;;1784.90;999.90;;;;;;;2.07;100.00;99414.63;5010674;28;20057;-82
2022/04/09 06:14:31;;;;;;;1802.90;999.90;;;;;;;2.23;100.00;99435.16;5032762;28;20057;-82
2022/04/09 06:17:04;;;;;;;1831.28;999.90;;;;;;;2.35;100.00;99435.03;5066877;28;20044;-83
2022/04/09 06:19:38;;;;;;;1879.28;999.90;;;;;;;2.68;100.00;99430.41;5030859;28;20053;-81
2022/04/09 06:22:11;;;;;;;1911.40;999.90;;;;;;;2.75;100.00;99447.13;5029024;28;20064;-82
2022/04/09 06:24:39;;;;;;;1929.60;999.90;;;;;;;2.58;100.00;99468.75;5030223;28;20669;-83
2022/04/09 06:27:12;;;;;;;1954.82;999.90;;;;;;;2.32;100.00;99465.03;5028792;28;20059;-83
2022/04/09 06:29:41;;;;;;;1983.72;999.90;;;;;;;2.23;100.00;99459.34;5029620;28;20049;-81
2022/04/09 06:32:11;;;;;;;1998.47;999.90;;;;;;;2.34;100.00;99479.03;5031774;28;20064;-81
2022/04/09 06:34:44;;;;;;;1999.90;999.90;;;;;;;2.27;100.00;99481.13;5037658;28;20520;-83
2022/04/09 06:37:19;;;;;;;1999.90;999.90;;;;;;;2.30;100.00;99475.25;5037217;28;20073;-82
2022/04/09 06:39:53;;;;;;;1999.90;999.90;;;;;;;2.44;100.00;99487.16;5070335;28;20670;-83
2022/04/09 06:42:27;;;;;;;1999.90;999.90;;;;;;;2.67;100.00;99490.59;5029835;28;20524;-83
2022/04/09 06:45:22;;;;;;;1999.90;999.90;;;;;;;2.70;100.00;99492.75;5033865;28;20068;-82
2022/04/09 06:48:22;;;;;;;1999.90;999.90;;;;;;;3.01;100.00;99483.03;5040506;28;20061;-83
2022/04/09 06:51:14;;;;;;;1999.90;999.90;;;;;;;2.84;100.00;99506.56;5043702;28;20057;-82
2022/04/09 06:53:47;;;;;;;1999.90;999.90;;;;;;;2.74;100.00;99504.63;5040984;28;20048;-81
2022/04/09 06:56:21;;;;;;;1999.90;999.90;;;;;;;2.52;100.00;99512.75;5033492;28;20058;-83
2022/04/09 06:58:54;;;;;;;1999.90;999.90;;;;;;;2.48;100.00;99519.69;5033701;28;20057;-81
2022/04/09 07:01:22;;;;;;;1999.90;999.90;;;;;;;2.41;100.00;99527.16;5040496;28;20069;-81
2022/04/09 07:03:58;;;;;;;1999.90;999.90;;;;;;;2.36;100.00;99517.16;5040019;28;20056;-82
2022/04/09 07:06:31;;;;;;;1999.90;999.90;;;;;;;2.29;100.00;99525.44;5046841;28;20048;-82
2022/04/09 07:09:00;;;;;;;1999.90;999.90;;;;;;;2.38;100.00;99531.97;5035583;28;20064;-83
2022/04/09 07:11:34;;;;;;;1999.90;999.90;;;;;;;2.45;100.00;99539.03;5036681;28;20060;-81
2022/04/09 07:14:02;;;;;;;1999.90;999.90;;;;;;;2.28;100.00;99523.81;5010006;28;20579;-82
2022/04/09 07:16:30;;;;;;;1999.90;999.90;;;;;;;2.19;100.00;99533.38;5042681;28;20056;-79
2022/04/09 07:19:01;;;;;;;1999.90;999.90;;;;;;;2.25;100.00;99539.63;5076347;28;20862;-81
2022/04/09 07:21:29;;;;;;;1999.90;999.90;;;;;;;2.59;100.00;99523.28;5031648;28;20057;-82
2022/04/09 07:24:02;;;;;;;1999.90;999.90;;;;;;;2.71;100.00;99513.19;5031484;28;20432;-81
2022/04/09 07:26:35;;;;;;;1999.90;999.90;;;;;;;2.81;100.00;99510.56;5039761;28;20064;-82
2022/04/09 07:29:03;;;;;;;1999.90;999.90;;;;;;;3.19;100.00;99518.63;5030265;28;20059;-81
2022/04/09 07:31:36;;;;;;;1999.90;999.90;;;;;;;3.29;100.00;99529.47;5041273;28;20614;-81
2022/04/09 07:34:06;;;;;;;1999.90;999.90;;;;;;;3.28;100.00;99535.91;5035160;28;20052;-80
2022/04/09 07:36:39;;;;;;;1999.90;999.90;;;;;;;3.02;100.00;99529.53;5036791;28;20067;-82
2022/04/09 07:39:12;;;;;;;1999.90;999.90;;;;;;;3.44;100.00;99544.03;5032142;28;20576;-82
2022/04/09 07:41:45;;;;;;;1999.90;999.90;;;;;;;3.47;100.00;99555.09;5030647;28;20790;-82
2022/04/09 07:44:13;;;;;;;1999.90;999.90;;;;;;;3.48;100.00;99555.91;5028398;28;20060;-81
2022/04/09 07:46:47;;;;;;;1999.90;999.90;;;;;;;3.48;100.00;99558.59;5030864;28;20060;-81
2022/04/09 07:49:21;;;;;;;1999.90;999.90;;;;;;;3.36;100.00;99558.81;5036617;28;20056;-82
2022/04/09 07:51:55;;;;;;;1999.90;999.90;;;;;;;3.16;100.00;99564.84;5032806;28;20060;-81
2022/04/09 07:54:29;;;;;;;1999.90;999.90;;;;;;;3.17;100.00;99574.53;5036093;28;21345;-81
2022/04/09 07:56:57;;;;;;;1999.90;999.90;;;;;;;3.04;100.00;99586.56;5036415;28;20056;-80
2022/04/09 07:59:30;;;;;;;1999.90;999.90;;;;;;;2.79;100.00;99604.06;5033400;28;20060;-82
2022/04/09 08:02:04;;;;;;;1999.90;999.90;;;;;;;1.97;100.00;99612.03;5031721;28;20064;-80
2022/04/09 08:04:33;;;;;;;1999.90;999.90;;;;;;;1.74;100.00;99607.72;5035458;28;20053;-81
2022/04/09 08:07:06;;;;;;;1971.57;999.90;;;;;;;1.36;100.00;99593.22;5034945;28;20402;-80
2022/04/09 08:09:39;;;;;;;1944.22;999.90;;;;;;;1.08;100.00;99578.88;5029934;28;20057;-81
2022/04/09 08:12:08;;;;;;;1945.03;999.90;;;;;;;1.31;100.00;99587.78;5008402;28;20072;-82
2022/04/09 08:14:42;;;;;;;1957.68;999.90;;;;;;;1.46;100.00;99574.59;5032837;28;20049;-79
2022/04/09 08:17:18;;;;;;;1963.10;999.90;;;;;;;1.58;100.00;99585.25;5032614;28;20060;-83
2022/04/09 08:19:47;;;;;;;1970.45;999.90;;;;;;;1.70;100.00;99582.47;5032489;28;20060;-82
2022/04/09 08:22:21;;;;;;;1977.57;999.90;;;;;;;1.87;100.00;99593.94;5033236;28;20057;-81
2022/04/09 08:24:54;;;;;;;1972.25;999.90;;;;;;;1.70;100.00;99572.53;5038466;28;20080;-81
2022/04/09 08:27:27;;;;;;;1974.93;999.90;;;;;;;1.88;100.00;99605.50;5035497;28;20064;-80
2022/04/09 08:30:00;;;;;;;1974.15;999.90;;;;;;;2.14;100.00;99595.06;5032268;28;20052;-80
2022/04/09 08:32:29;;;;;;;1963.32;999.90;;;;;;;2.25;100.00;99586.06;5036948;28;22140;-81
2022/04/09 08:35:04;;;;;;;1975.28;999.90;;;;;;;2.59;100.00;99595.81;5043395;28;20067;-80
2022/04/09 08:37:38;;;;;;;1983.45;999.90;;;;;;;2.81;100.00;99582.31;5047727;28;20651;-80
2022/04/09 08:40:14;;;;;;;1958.03;999.90;;;;;;;3.04;100.00;99576.59;5051032;28;20056;-79
2022/04/09 08:42:48;;;;;;;1950.05;999.90;;;;;;;3.35;100.00;99582.19;5046889;28;20037;-80
2022/04/09 08:45:21;;;;;;;1921.78;999.90;;;;;;;3.47;100.00;99576.63;5048588;28;20492;-80
2022/04/09 08:47:55;;;;;;;1902.18;999.90;;;;;;;3.73;100.00;99572.19;5041993;28;20045;-79
2022/04/09 08:50:29;;;;;;;1907.35;999.90;;;;;;;4.04;100.00;99571.53;5050181;28;20049;-81
2022/04/09 08:53:06;;;;;;;1913.68;999.90;;;;;;;4.29;100.00;99576.16;5041724;28;20041;-81
2022/04/09 08:55:41;;;;;;;1915.07;999.90;;;;;;;4.42;100.00;99581.06;5064799;28;20045;-80
2022/04/09 08:58:14;;;;;;;1941.85;999.90;;;;;;;4.73;100.00;99574.91;5043908;28;20390;-80
2022/04/09 09:00:48;;;;;;;1970.05;999.90;;;;;;;4.67;100.00;99584.88;5057301;28;20056;-80
2022/04/09 09:03:21;;;;;;;1999.90;999.90;;;;;;;4.60;100.00;99592.44;5043800;28;20500;-79
2022/04/09 09:05:56;;;;;;;1999.90;999.90;;;;;;;4.72;100.00;99609.16;5040984;28;20049;-79
2022/04/09 09:08:37;;;;;;;1999.90;999.90;;;;;;;4.85;100.00;99601.63;5057196;28;20040;-79
2022/04/09 09:11:06;;;;;;;1999.90;999.90;;;;;;;4.87;100.00;99608.34;5051667;28;20052;-80
2022/04/09 09:13:47;;;;;;;1999.90;999.90;;;;;;;4.70;100.00;99613.19;5038446;28;20053;-79
2022/04/09 09:16:25;;;;;;;1999.90;999.90;;;;;;;4.24;100.00;99621.97;5039798;28;20397;-79
2022/04/09 09:18:55;;;;;;;1999.90;999.90;;;;;;;4.22;100.00;99611.44;5038463;28;20053;-79
2022/04/09 09:21:30;;;;;;;1999.90;999.90;;;;;;;4.24;100.00;99606.59;5044618;28;20060;-80
2022/04/09 09:24:13;;;;;;;1999.90;999.90;;;;;;;4.24;100.00;99617.38;5040401;28;20049;-81
2022/04/09 09:26:46;;;;;;;1999.90;999.90;;;;;;;4.31;100.00;99600.97;5040637;28;20041;-80
2022/04/09 09:29:26;;;;;;;1999.90;999.90;;;;;;;4.58;100.00;99616.94;5047528;28;20068;-79
2022/04/09 09:32:00;;;;;;;1999.90;999.90;;;;;;;4.72;100.00;99619.09;5044753;28;20041;-80
2022/04/09 09:34:34;;;;;;;1999.90;999.90;;;;;;;4.76;100.00;99625.59;5045254;28;20048;-80
2022/04/09 09:37:04;;;;;;;1999.90;999.90;;;;;;;4.71;100.00;99631.78;5078786;28;20056;-78
2022/04/09 09:39:43;;;;;;;1999.90;999.90;;;;;;;4.88;100.00;99636.13;5042925;28;20063;-80
2022/04/09 09:42:19;;;;;;;1999.90;999.90;;;;;;;5.02;100.00;99645.31;5044461;28;20053;-80
2022/04/09 09:44:52;;;;;;;1999.90;999.90;;;;;;;5.28;100.00;99640.72;5043692;28;20457;-81
2022/04/09 09:47:25;;;;;;;1999.90;999.90;;;;;;;5.36;100.00;99630.47;5050407;28;20401;-81
2022/04/09 09:49:59;;;;;;;1999.90;999.90;;;;;;;5.64;100.00;99634.50;5041335;28;20048;-81
2022/04/09 09:52:34;;;;;;;1999.90;999.90;;;;;;;5.71;100.00;99634.22;5051315;28;20413;-78
2022/04/09 09:55:06;;;;;;;1999.90;999.90;;;;;;;5.61;100.00;99624.25;5059773;28;20046;-80
2022/04/09 09:57:35;;;;;;;1999.90;999.90;;;;;;;5.64;100.00;99634.50;5051013;28;20418;-79
2022/04/09 10:00:11;;;;;;;1999.90;999.90;;;;;;;5.33;100.00;99626.44;5069650;28;20072;-80
2022/04/09 10:02:40;;;;;;;1999.90;999.90;;;;;;;5.03;100.00;99641.53;5069371;28;20049;-78
2022/04/09 10:05:13;;;;;;;1992.78;999.90;;;;;;;4.49;100.00;99655.41;5041612;28;20041;-79
2022/04/09 10:07:45;;;;;;;1999.00;999.90;;;;;;;4.31;100.00;99664.78;5046377;28;20071;-80
2022/04/09 10:10:13;;;;;;;1966.75;999.90;;;;;;;3.95;100.00;99673.53;5040503;28;20397;-79
2022/04/09 10:12:42;;;;;;;1958.97;999.90;;;;;;;3.98;100.00;99659.53;5036080;28;20064;-79
2022/04/09 10:15:11;;;;;;;1990.82;999.90;;;;;;;3.98;100.00;99654.16;5021461;28;20053;-79
2022/04/09 10:17:45;;;;;;;1999.90;999.90;;;;;;;4.12;100.00;99669.84;5018408;28;20055;-78
2022/04/09 10:20:19;;;;;;;1999.90;999.90;;;;;;;3.92;100.00;99682.91;5022174;28;20053;-81
2022/04/09 10:22:58;;;;;;;1999.90;999.90;;;;;;;4.05;100.00;99692.41;5023440;28;20049;-79
2022/04/09 10:25:28;;;;;;;1999.90;999.90;;;;;;;4.08;100.00;99702.66;5026170;28;20056;-80
2022/04/09 10:28:03;;;;;;;1999.90;999.90;;;;;;;4.22;100.00;99691.41;5019780;28;20067;-80
2022/04/09 10:30:39;;;;;;;1999.90;999.90;;;;;;;4.32;100.00;99687.97;5019293;28;20663;-80
2022/04/09 10:33:22;;;;;;;1999.90;999.90;;;;;;;4.49;100.00;99695.84;5026467;28;20516;-78
2022/04/09 10:35:50;;;;;;;1999.90;999.90;;;;;;;4.38;100.00;99687.72;5025923;28;20049;-79
2022/04/09 10:38:25;;;;;;;1999.90;999.90;;;;;;;4.49;100.00;99683.19;5030388;28;20048;-80
2022/04/09 10:41:27;;;;;;;1999.90;999.90;;;;;;;4.77;100.00;99694.59;5017598;28;20048;-81
2022/04/09 10:43:59;;;;;;;1999.90;999.90;;;;;;;4.85;100.00;99702.16;5057061;28;21394;-79
2022/04/09 10:46:35;;;;;;;1999.90;999.90;;;;;;;4.89;100.00;99692.47;5022160;28;20056;-79
2022/04/09 10:49:19;;;;;;;1999.90;999.90;;;;;;;5.16;100.00;99685.22;5031533;28;20417;-80
2022/04/09 10:52:14;;;;;;;1999.90;999.90;;;;;;;5.63;100.00;99678.75;5022312;28;20417;-79
2022/04/09 10:55:26;;;;;;;1999.90;999.90;;;;;;;5.69;100.00;99683.09;5023587;28;20053;-79
2022/04/09 10:58:04;;;;;;;1999.90;999.90;;;;;;;5.18;100.00;99699.25;4959536;28;20070;-79
2022/04/09 11:00:37;;;;;;;1999.90;999.90;;;;;;;5.09;100.00;99713.25;4958374;28;20062;-80
2022/04/09 11:03:15;;;;;;;1999.90;999.90;;;;;;;4.88;100.00;99725.09;4997878;28;20063;-79
2022/04/09 11:05:49;;;;;;;1999.90;999.90;;;;;;;4.73;100.00;99704.28;5027995;28;20057;-81
2022/04/09 11:08:23;;;;;;;1987.38;999.90;;;;;;;4.72;100.00;99699.97;5023146;28;20461;-81
2022/04/09 11:10:58;;;;;;;1936.00;999.90;;;;;;;4.87;100.00;99696.50;5024871;28;20058;-79
2022/04/09 11:13:30;;;;;;;1870.90;999.90;;;;;;;4.97;100.00;99709.19;5028858;28;20061;-81
2022/04/09 11:16:04;;;;;;;1823.53;999.90;;;;;;;5.17;100.00;99722.72;5029005;28;20057;-80
2022/04/09 11:18:42;;;;;;;1792.10;999.90;;;;;;;5.10;100.00;99727.56;5032170;28;20048;-81
2022/04/09 11:21:12;;;;;;;1754.40;999.90;;;;;;;5.38;100.00;99731.66;5020413;28;20052;-82
2022/04/09 11:23:45;;;;;;;1821.80;999.90;;;;;;;5.58;100.00;99746.25;5030244;28;20064;-79